Time;durP1;ratioP1;P1;durP2;ratioP2;P2;SDS_P1;SDS_P2;PMS_P1;PMS_P2;Temp;Humidity;BMP_temperature;BMP_pressure;BME280_temperature;BME280_humidity;BME280_pressure;Samples;Min_cycle;Max_cycle;Signal;HPM_P1;HPM_P2
2023/12/22 00:00:56;;;;;;;12.78;5.40;;;;;;;3.29;78.74;97856.41;1679363;85;21044;-63
2023/12/22 00:03:25;;;;;;;10.68;5.72;;;;;;;3.30;78.58;97848.59;1737094;82;21055;-65
2023/12/22 00:05:54;;;;;;;17.00;6.65;;;;;;;3.28;78.51;97845.27;1681645;83;21053;-63
2023/12/22 00:08:23;;;;;;;14.40;6.47;;;;;;;3.26;78.55;97838.72;1679163;85;21040;-63
2023/12/22 00:10:51;;;;;;;10.85;5.67;;;;;;;3.27;78.57;97847.15;1737116;82;21019;-64
2023/12/22 00:13:20;;;;;;;11.88;6.03;;;;;;;3.26;78.46;97839.24;1699194;84;21065;-64
2023/12/22 00:15:48;;;;;;;13.15;5.80;;;;;;;3.25;78.43;97841.61;1679279;85;21095;-64
2023/12/22 00:18:16;;;;;;;12.58;6.08;;;;;;;3.27;78.34;97832.27;1737078;82;21091;-64
2023/12/22 00:20:45;;;;;;;11.83;5.85;;;;;;;3.26;78.31;97827.90;1699068;84;21112;-63
2023/12/22 00:23:14;;;;;;;12.75;6.40;;;;;;;3.27;78.32;97823.31;1679172;85;21044;-63
2023/12/22 00:25:42;;;;;;;13.58;5.80;;;;;;;3.26;78.39;97813.02;1737103;82;21498;-63
2023/12/22 00:28:11;;;;;;;11.83;6.00;;;;;;;3.27;78.42;97813.84;1737268;82;21069;-63
2023/12/22 00:30:40;;;;;;;15.32;6.55;;;;;;;3.23;78.28;97812.59;1681741;83;21077;-63
2023/12/22 00:33:08;;;;;;;10.88;5.85;;;;;;;3.21;78.46;97807.91;1679261;85;21108;-64
2023/12/22 00:35:37;;;;;;;10.63;5.75;;;;;;;3.22;78.55;97803.64;1647984;87;21064;-63
2023/12/22 00:38:06;;;;;;;11.12;5.58;;;;;;;3.22;78.52;97803.64;1648169;86;21076;-63
2023/12/22 00:40:34;;;;;;;12.75;5.97;;;;;;;3.22;78.49;97794.17;1648130;86;21048;-63
2023/12/22 00:43:03;;;;;;;12.05;5.95;;;;;;;3.23;78.57;97797.18;1647943;86;21080;-64
2023/12/22 00:45:31;;;;;;;10.38;5.97;;;;;;;3.24;78.46;97792.08;1647885;87;21492;-63
2023/12/22 00:48:00;;;;;;;10.03;5.95;;;;;;;3.23;78.46;97780.95;1647944;86;21059;-62
2023/12/22 00:50:29;;;;;;;12.37;5.95;;;;;;;3.19;78.46;97768.37;1648203;87;21540;-63
2023/12/22 00:52:57;;;;;;;13.48;5.75;;;;;;;3.18;78.44;97756.42;1648123;87;21069;-65
2023/12/22 00:55:26;;;;;;;13.75;6.45;;;;;;;3.18;78.47;97756.42;1648109;86;21198;-62
2023/12/22 00:57:54;;;;;;;9.98;5.40;;;;;;;3.17;78.56;97740.70;1647862;86;21615;-64
2023/12/22 01:00:23;;;;;;;10.48;5.75;;;;;;;3.17;78.54;97738.00;1647955;86;21139;-63
2023/12/22 01:02:52;;;;;;;11.75;5.97;;;;;;;3.17;78.50;97735.82;1648088;86;21060;-63
2023/12/22 01:05:20;;;;;;;11.40;5.92;;;;;;;3.15;78.53;97731.15;1648121;86;21056;-64
2023/12/22 01:07:49;;;;;;;13.72;5.90;;;;;;;3.14;78.69;97726.78;1647995;87;21087;-65
2023/12/22 01:10:21;;;;;;;11.97;6.05;;;;;;;3.12;78.72;97731.06;1647783;86;21338;-62
2023/12/22 01:12:50;;;;;;;11.18;6.00;;;;;;;3.11;78.82;97714.52;1647880;87;21028;-63
2023/12/22 01:15:18;;;;;;;11.20;6.00;;;;;;;3.11;78.91;97713.17;1648072;87;21095;-64
2023/12/22 01:17:47;;;;;;;10.58;5.97;;;;;;;3.10;79.04;97709.33;1648021;86;21044;-63
2023/12/22 01:20:16;;;;;;;11.08;6.08;;;;;;;3.10;79.05;97710.68;1647877;87;21040;-63
2023/12/22 01:22:45;;;;;;;10.55;5.83;;;;;;;3.09;79.15;97708.50;1647948;87;21016;-64
2023/12/22 01:25:13;;;;;;;11.88;6.35;;;;;;;3.09;79.08;97698.20;1648131;87;21044;-63
2023/12/22 01:27:42;;;;;;;13.18;6.47;;;;;;;3.08;79.09;97704.66;1648140;86;21080;-64
2023/12/22 01:30:11;;;;;;;11.85;6.00;;;;;;;3.05;79.02;97691.56;1647875;87;21076;-63
2023/12/22 01:32:40;;;;;;;11.08;6.20;;;;;;;3.03;79.16;97699.07;1647915;86;21063;-63
2023/12/22 01:35:09;;;;;;;12.18;5.95;;;;;;;3.05;79.24;97701.03;1694937;83;21574;-63
2023/12/22 01:37:38;;;;;;;16.10;6.37;;;;;;;3.04;79.23;97698.02;1691717;85;21111;-63
2023/12/22 01:40:08;;;;;;;14.05;6.30;;;;;;;3.04;79.22;97696.67;1706839;84;21065;-63
2023/12/22 01:42:37;;;;;;;11.50;6.53;;;;;;;3.03;79.30;97701.25;1691716;85;21084;-65
2023/12/22 01:45:07;;;;;;;11.22;6.15;;;;;;;3.04;79.36;97697.50;1744652;82;21070;-63
2023/12/22 01:47:36;;;;;;;10.75;5.65;;;;;;;3.06;79.33;97689.17;1744635;82;21012;-65
2023/12/22 01:50:06;;;;;;;11.93;5.72;;;;;;;3.07;79.17;97681.36;1744647;82;21111;-63
2023/12/22 01:52:35;;;;;;;17.07;6.60;;;;;;;3.08;79.06;97678.97;1744627;82;21071;-64
2023/12/22 01:55:06;;;;;;;12.80;5.87;;;;;;;3.09;79.13;97671.98;1744604;82;21031;-63
2023/12/22 01:57:35;;;;;;;13.50;6.40;;;;;;;3.14;79.11;97663.22;1744430;82;21043;-64
2023/12/22 02:00:05;;;;;;;10.85;5.87;;;;;;;3.16;79.04;97652.48;1706676;83;21045;-68
2023/12/22 02:02:38;;;;;;;12.05;5.90;;;;;;;3.16;78.93;97651.66;1691473;85;21071;-62
2023/12/22 02:05:09;;;;;;;12.70;6.17;;;;;;;3.16;78.82;97647.08;1706685;84;21053;-65
2023/12/22 02:07:42;;;;;;;12.43;6.15;;;;;;;3.16;78.69;97642.19;1691807;85;21015;-63
2023/12/22 02:10:11;;;;;;;11.97;6.12;;;;;;;3.16;78.68;97631.37;1744541;82;21051;-63
2023/12/22 02:12:39;;;;;;;12.55;6.30;;;;;;;3.16;78.60;97630.02;1717125;82;21008;-63
2023/12/22 02:15:10;;;;;;;15.58;6.50;;;;;;;3.17;78.48;97635.21;1744528;82;21070;-63
2023/12/22 02:17:51;;;;;;;13.30;6.33;;;;;;;3.19;78.50;97643.11;1744554;82;21063;-64
2023/12/22 02:20:21;;;;;;;17.45;6.72;;;;;;;3.19;78.56;97629.58;1706733;83;21128;-63
2023/12/22 02:22:53;;;;;;;12.18;6.83;;;;;;;3.22;78.43;97631.84;1691812;85;21142;-63
2023/12/22 02:25:22;;;;;;;15.00;6.80;;;;;;;3.21;78.25;97619.38;1744532;82;21110;-63
2023/12/22 02:27:53;;;;;;;15.65;7.05;;;;;;;3.18;78.29;97614.39;1744559;82;21059;-64
2023/12/22 02:30:28;;;;;;;13.45;6.42;;;;;;;3.19;78.35;97612.00;1744455;82;21032;-63
2023/12/22 02:33:03;;;;;;;11.55;6.87;;;;;;;3.17;78.34;97604.62;1706778;83;21061;-64
2023/12/22 02:35:35;;;;;;;13.68;6.12;;;;;;;3.17;78.26;97605.98;1681293;85;21067;-63
2023/12/22 02:38:04;;;;;;;12.95;5.85;;;;;;;3.16;78.30;97611.91;1737180;82;21644;-64
2023/12/22 02:40:33;;;;;;;11.03;5.87;;;;;;;3.13;78.32;97606.11;1737418;81;21064;-62
2023/12/22 02:43:05;;;;;;;12.65;6.58;;;;;;;3.12;78.42;97596.34;1699296;84;21038;-64
2023/12/22 02:45:34;;;;;;;12.05;6.50;;;;;;;3.12;78.52;97612.05;1679218;85;21059;-63
2023/12/22 02:48:04;;;;;;;15.38;6.83;;;;;;;3.12;78.67;97603.93;1737108;82;21033;-63
2023/12/22 02:50:32;;;;;;;11.93;6.42;;;;;;;3.12;78.69;97599.87;1737293;82;21479;-64
2023/12/22 02:53:01;;;;;;;11.15;6.35;;;;;;;3.11;78.57;97596.03;1699425;83;21136;-63
2023/12/22 02:55:30;;;;;;;14.85;6.78;;;;;;;3.10;78.60;97595.20;1679199;85;21076;-64
2023/12/22 02:57:58;;;;;;;12.45;6.30;;;;;;;3.11;78.61;97590.10;1737376;82;21059;-63
2023/12/22 03:00:27;;;;;;;13.00;6.22;;;;;;;3.12;78.64;97585.52;1699343;84;21077;-62
2023/12/22 03:02:56;;;;;;;14.58;7.10;;;;;;;3.13;78.62;97582.59;1679121;85;21111;-63
2023/12/22 03:05:24;;;;;;;17.10;6.67;;;;;;;3.13;78.66;97583.12;1737355;82;21128;-63
2023/12/22 03:07:53;;;;;;;12.28;6.65;;;;;;;3.12;78.63;97590.41;1699365;83;21065;-63
2023/12/22 03:10:22;;;;;;;12.90;6.80;;;;;;;3.11;78.63;97579.80;1679281;85;21047;-65
2023/12/22 03:12:50;;;;;;;11.73;6.53;;;;;;;3.10;78.64;97576.27;1737323;82;21031;-62
2023/12/22 03:15:19;;;;;;;10.38;6.15;;;;;;;3.08;78.60;97563.49;1699132;84;21105;-63
2023/12/22 03:17:48;;;;;;;12.35;6.30;;;;;;;3.06;78.67;97549.36;1679245;85;21020;-63
2023/12/22 03:20:16;;;;;;;12.70;6.50;;;;;;;3.07;78.73;97553.72;1737273;82;21007;-63
2023/12/22 03:22:45;;;;;;;10.85;6.05;;;;;;;3.08;78.77;97555.91;1737370;82;21023;-62
2023/12/22 03:25:16;;;;;;;12.63;6.80;;;;;;;3.06;78.80;97563.41;1699288;83;21081;-63
2023/12/22 03:27:45;;;;;;;16.15;7.97;;;;;;;3.05;78.77;97549.58;1679450;85;21044;-63
2023/12/22 03:30:15;;;;;;;15.05;7.20;;;;;;;3.01;78.92;97553.25;1737089;82;21048;-62
2023/12/22 03:32:43;;;;;;;14.53;6.92;;;;;;;3.02;79.06;97558.13;1737122;81;21020;-63
2023/12/22 03:35:12;;;;;;;13.75;7.25;;;;;;;3.01;79.19;97565.42;1739670;81;21099;-63
2023/12/22 03:37:40;;;;;;;14.53;6.75;;;;;;;3.01;79.28;97567.30;1706507;83;21563;-63
2023/12/22 03:40:09;;;;;;;12.95;6.80;;;;;;;3.01;79.35;97555.95;1741773;82;21075;-62
2023/12/22 03:42:38;;;;;;;12.25;6.30;;;;;;;3.05;79.44;97563.10;1742134;82;21067;-64
2023/12/22 03:45:07;;;;;;;14.40;6.67;;;;;;;3.06;79.42;97552.59;1706503;83;21104;-64
2023/12/22 03:47:36;;;;;;;12.40;6.53;;;;;;;3.05;79.31;97554.99;1741923;82;21213;-62
2023/12/22 03:50:06;;;;;;;14.45;6.47;;;;;;;3.05;79.40;97549.05;1741802;82;21027;-64
2023/12/22 03:52:36;;;;;;;13.20;6.47;;;;;;;3.05;79.37;97545.52;1706491;83;21061;-64
2023/12/22 03:55:05;;;;;;;12.13;7.00;;;;;;;3.06;79.41;97548.53;1741945;82;21107;-62
2023/12/22 03:57:33;;;;;;;12.80;6.67;;;;;;;3.05;79.42;97554.99;1742094;81;21031;-63
2023/12/22 04:00:04;;;;;;;14.63;7.42;;;;;;;3.06;79.49;97567.47;1706510;84;21089;-63
2023/12/22 04:02:33;;;;;;;13.98;7.08;;;;;;;3.05;79.53;97580.16;1741866;82;21023;-63
2023/12/22 04:05:01;;;;;;;13.53;6.62;;;;;;;3.05;79.45;97586.09;1741898;82;21035;-62
2023/12/22 04:07:30;;;;;;;12.60;6.62;;;;;;;3.03;79.52;97574.14;1706681;83;21093;-64
2023/12/22 04:09:59;;;;;;;13.88;6.62;;;;;;;3.03;79.66;97571.96;1741931;82;21071;-64
2023/12/22 04:12:27;;;;;;;11.63;6.55;;;;;;;3.06;79.71;97571.52;1741828;81;21031;-63
2023/12/22 04:14:56;;;;;;;12.47;6.85;;;;;;;3.06;79.73;97564.76;1741949;81;21519;-64
2023/12/22 04:17:25;;;;;;;10.60;6.15;;;;;;;3.07;79.78;97565.06;1706457;84;21058;-63
2023/12/22 04:19:53;;;;;;;16.27;7.58;;;;;;;3.05;79.83;97563.10;1741742;82;21032;-63
2023/12/22 04:22:23;;;;;;;11.93;6.42;;;;;;;3.05;79.89;97566.63;1742057;81;21023;-63
2023/12/22 04:24:52;;;;;;;13.50;6.85;;;;;;;3.04;79.82;97562.28;1741988;81;21028;-65
2023/12/22 04:27:21;;;;;;;9.98;5.95;;;;;;;3.03;79.88;97551.16;1679301;84;21054;-63
2023/12/22 04:29:49;;;;;;;11.45;6.10;;;;;;;3.03;79.95;97547.63;1741763;82;21051;-64
2023/12/22 04:32:18;;;;;;;10.78;5.92;;;;;;;3.02;80.02;97544.61;1741742;81;21043;-64
2023/12/22 04:34:46;;;;;;;14.25;6.97;;;;;;;3.02;80.15;97539.20;1706006;83;21137;-63
2023/12/22 04:37:15;;;;;;;12.47;6.28;;;;;;;2.99;80.21;97541.83;1688462;85;21561;-64
2023/12/22 04:39:44;;;;;;;14.20;6.80;;;;;;;2.97;80.25;97533.63;1686119;84;21058;-64
2023/12/22 04:42:12;;;;;;;10.82;6.47;;;;;;;2.95;80.41;97528.96;1688413;85;21051;-62
2023/12/22 04:44:41;;;;;;;12.90;6.50;;;;;;;2.97;80.51;97523.64;1703637;84;21477;-64
2023/12/22 04:47:12;;;;;;;11.43;6.30;;;;;;;2.97;80.45;97514.70;1688653;85;21123;-66
2023/12/22 04:49:40;;;;;;;12.90;6.37;;;;;;;2.98;80.34;97521.76;1703635;84;21551;-63
2023/12/22 04:52:11;;;;;;;12.25;6.83;;;;;;;2.99;80.41;97509.89;1688808;85;21071;-64
2023/12/22 04:54:39;;;;;;;12.47;6.80;;;;;;;2.99;80.40;97522.06;1703740;83;21057;-63
2023/12/22 04:57:07;;;;;;;14.40;6.85;;;;;;;3.00;80.44;97517.79;1661455;85;21075;-64
2023/12/22 04:59:36;;;;;;;13.98;6.92;;;;;;;3.03;80.34;97524.63;1703575;83;21505;-63
2023/12/22 05:02:06;;;;;;;13.03;6.97;;;;;;;3.02;80.28;97514.86;1688266;85;21059;-65
2023/12/22 05:04:35;;;;;;;11.20;6.25;;;;;;;3.00;80.30;97515.08;1703746;84;21112;-63
2023/12/22 05:07:06;;;;;;;10.75;6.50;;;;;;;3.01;80.31;97516.73;1688530;85;21016;-63
2023/12/22 05:09:34;;;;;;;11.05;6.50;;;;;;;3.01;80.25;97502.39;1703784;84;21105;-63
2023/12/22 05:12:03;;;;;;;12.78;6.20;;;;;;;3.00;80.11;97505.62;1688419;85;21059;-64
2023/12/22 05:14:32;;;;;;;12.68;6.83;;;;;;;2.97;80.20;97493.89;1703936;84;21485;-64
2023/12/22 05:17:01;;;;;;;13.05;6.20;;;;;;;2.97;80.38;97492.54;1661709;85;21043;-64
2023/12/22 05:19:30;;;;;;;11.63;6.00;;;;;;;2.98;80.58;97497.42;1703641;84;21026;-64
2023/12/22 05:21:59;;;;;;;16.62;7.00;;;;;;;2.99;80.77;97490.44;1688430;85;21517;-64
2023/12/22 05:24:29;;;;;;;15.08;7.67;;;;;;;2.97;80.93;97487.66;1703575;83;21065;-64
2023/12/22 05:26:58;;;;;;;11.70;6.78;;;;;;;2.97;81.19;97483.08;1688692;85;21163;-62
2023/12/22 05:29:27;;;;;;;13.45;7.37;;;;;;;2.96;81.48;97487.35;1703638;84;21065;-64
2023/12/22 05:31:55;;;;;;;13.10;6.58;;;;;;;2.93;81.75;97479.16;1688623;85;21028;-65
2023/12/22 05:34:24;;;;;;;11.60;6.47;;;;;;;2.91;82.04;97480.42;1703595;83;21285;-63
2023/12/22 05:36:53;;;;;;;11.25;5.92;;;;;;;2.91;82.26;97488.02;1679536;85;21063;-64
2023/12/22 05:39:21;;;;;;;12.33;6.40;;;;;;;2.86;82.56;97481.91;1737272;82;21020;-63
2023/12/22 05:41:50;;;;;;;11.75;6.55;;;;;;;2.82;82.92;97479.88;1737342;82;21055;-66
2023/12/22 05:44:19;;;;;;;12.03;6.78;;;;;;;2.79;83.33;97470.33;1737230;81;21095;-63
2023/12/22 05:46:48;;;;;;;13.08;6.78;;;;;;;2.78;83.66;97479.48;1737108;82;20992;-64
2023/12/22 05:49:16;;;;;;;13.98;7.17;;;;;;;2.79;83.91;97470.85;1718568;82;21071;-65
2023/12/22 05:51:45;;;;;;;11.33;6.10;;;;;;;2.78;84.12;97467.84;1737051;82;21093;-65
2023/12/22 05:54:14;;;;;;;11.63;6.87;;;;;;;2.78;84.37;97469.20;1737089;81;21076;-64
2023/12/22 05:56:43;;;;;;;13.53;6.87;;;;;;;2.77;84.50;97470.24;1737306;81;21055;-64
2023/12/22 05:59:12;;;;;;;14.55;7.22;;;;;;;2.76;84.65;97466.71;1736961;82;21063;-65
2023/12/22 06:01:40;;;;;;;14.50;7.60;;;;;;;2.73;84.73;97466.33;1737149;82;21039;-66
2023/12/22 06:04:09;;;;;;;14.45;6.70;;;;;;;2.69;84.89;97473.22;1699099;84;21481;-63
2023/12/22 06:06:39;;;;;;;15.55;6.75;;;;;;;2.67;85.14;97468.03;1679293;85;21044;-64
2023/12/22 06:09:07;;;;;;;13.95;7.42;;;;;;;2.65;85.26;97463.37;1737230;82;21024;-64
2023/12/22 06:11:35;;;;;;;15.28;7.30;;;;;;;2.65;85.43;97466.07;1681556;84;21109;-65
2023/12/22 06:14:04;;;;;;;14.35;6.97;;;;;;;2.66;85.51;97468.25;1679201;85;21056;-65
2023/12/22 06:16:33;;;;;;;12.37;6.47;;;;;;;2.67;85.67;97477.48;1736923;82;21055;-63
2023/12/22 06:19:02;;;;;;;11.75;6.85;;;;;;;2.66;85.67;97473.13;1737260;82;21060;-63
2023/12/22 06:21:32;;;;;;;14.95;6.87;;;;;;;2.64;85.77;97470.34;1737145;82;20996;-63
2023/12/22 06:24:00;;;;;;;11.75;6.58;;;;;;;2.63;85.89;97459.23;1718927;82;21072;-64
2023/12/22 06:26:29;;;;;;;12.60;6.97;;;;;;;2.59;86.00;97458.81;1699286;83;21093;-65
2023/12/22 06:28:58;;;;;;;11.95;6.87;;;;;;;2.56;86.20;97460.59;1659775;85;21064;-65
2023/12/22 06:31:26;;;;;;;13.05;7.00;;;;;;;2.54;86.38;97454.06;1737277;82;21028;-65
2023/12/22 06:34:00;;;;;;;11.83;6.75;;;;;;;2.54;86.67;97441.08;1737133;82;21020;-64
2023/12/22 06:36:26;;;;;;;13.25;8.03;;;;;;;2.49;86.71;97443.08;1736779;81;21037;-66
2023/12/22 06:38:55;;;;;;;13.68;7.47;;;;;;;2.47;86.90;97439.77;1736489;82;21047;-65
2023/12/22 06:41:29;;;;;;;13.80;7.72;;;;;;;2.45;87.18;97442.39;1736641;82;21063;-66
2023/12/22 06:44:03;;;;;;;14.65;7.08;;;;;;;2.45;87.53;97436.98;1698847;83;21650;-64
2023/12/22 06:46:28;;;;;;;17.07;7.35;;;;;;;2.44;87.85;97435.33;1736489;82;21036;-65
2023/12/22 06:48:57;;;;;;;13.95;7.58;;;;;;;2.46;87.99;97430.53;1736611;82;21028;-64
2023/12/22 06:51:31;;;;;;;17.40;7.62;;;;;;;2.46;88.25;97432.72;1736516;82;21056;-64
2023/12/22 06:54:00;;;;;;;13.72;7.15;;;;;;;2.47;88.38;97426.78;1699014;84;21097;-65
2023/12/22 06:56:33;;;;;;;17.07;7.62;;;;;;;2.49;88.64;97428.74;1736850;82;21051;-65
2023/12/22 06:59:02;;;;;;;12.75;6.92;;;;;;;2.50;88.76;97423.64;1736700;82;21063;-65
2023/12/22 07:01:33;;;;;;;18.50;8.98;;;;;;;2.51;88.84;97418.55;1698971;84;21465;-65
2023/12/22 07:04:03;;;;;;;17.98;8.78;;;;;;;2.49;88.90;97416.06;1736599;82;21039;-65
2023/12/22 07:06:33;;;;;;;15.10;7.70;;;;;;;2.49;89.08;97426.05;1698984;83;21046;-66
2023/12/22 07:09:28;;;;;;;16.27;7.83;;;;;;;2.49;89.31;97412.53;1736584;82;21098;-65
2023/12/22 07:11:56;;;;;;;14.30;7.55;;;;;;;2.50;89.47;97410.13;1698901;83;21490;-65
2023/12/22 07:14:26;;;;;;;16.93;8.60;;;;;;;2.51;89.58;97414.49;1736501;82;21075;-64
2023/12/22 07:16:55;;;;;;;17.17;7.60;;;;;;;2.51;89.70;97403.16;1698939;83;21058;-63
2023/12/22 07:19:24;;;;;;;13.48;7.12;;;;;;;2.49;89.88;97417.94;1710454;82;21488;-65
2023/12/22 07:21:52;;;;;;;16.75;8.13;;;;;;;2.47;90.09;97413.28;1698994;84;21057;-64
2023/12/22 07:24:21;;;;;;;17.98;7.72;;;;;;;2.44;90.11;97410.48;1736457;82;20994;-65
2023/12/22 07:26:49;;;;;;;13.68;7.58;;;;;;;2.42;90.38;97410.41;1736729;82;21055;-64
2023/12/22 07:29:18;;;;;;;16.10;7.97;;;;;;;2.40;90.52;97400.34;1736660;82;21611;-66
2023/12/22 07:31:46;;;;;;;21.17;9.48;;;;;;;2.41;90.72;97404.70;1736681;82;21043;-65
2023/12/22 07:34:16;;;;;;;13.90;7.60;;;;;;;2.42;91.01;97404.48;1698907;84;21501;-66
2023/12/22 07:36:45;;;;;;;15.30;8.03;;;;;;;2.41;91.23;97398.77;1736993;82;21044;-65
2023/12/22 07:39:18;;;;;;;17.67;9.13;;;;;;;2.40;91.60;97389.53;1699768;83;21062;-65
2023/12/22 07:41:46;;;;;;;14.03;7.83;;;;;;;2.41;91.90;97385.78;1679270;85;21459;-64
2023/12/22 07:44:15;;;;;;;18.92;8.60;;;;;;;2.39;92.02;97391.41;1718824;82;21040;-65
2023/12/22 07:46:44;;;;;;;16.52;8.43;;;;;;;2.36;92.15;97390.50;1699197;84;21560;-65
2023/12/22 07:49:13;;;;;;;18.10;8.65;;;;;;;2.35;92.41;97390.72;1679242;85;21075;-64
2023/12/22 07:51:43;;;;;;;14.40;7.90;;;;;;;2.36;92.78;97389.67;1737164;82;21039;-64
2023/12/22 07:54:12;;;;;;;14.40;7.53;;;;;;;2.37;92.86;97388.63;1699502;84;21060;-66
2023/12/22 07:56:41;;;;;;;15.72;8.90;;;;;;;2.37;93.17;97389.45;1679007;85;21067;-63
2023/12/22 07:59:10;;;;;;;16.02;8.53;;;;;;;2.40;93.37;97381.44;1737302;82;21091;-64
2023/12/22 08:01:40;;;;;;;13.72;8.05;;;;;;;2.41;93.49;97381.21;1699965;83;21129;-65
2023/12/22 08:04:09;;;;;;;13.83;8.30;;;;;;;2.42;93.79;97382.04;1679003;85;21537;-65
2023/12/22 08:06:38;;;;;;;16.20;9.18;;;;;;;2.45;93.96;97381.08;1737073;82;21532;-65
2023/12/22 08:09:06;;;;;;;19.02;8.43;;;;;;;2.49;94.21;97382.81;1737054;81;21091;-65
2023/12/22 08:11:36;;;;;;;18.27;9.48;;;;;;;2.50;94.29;97374.48;1736950;82;21480;-67
2023/12/22 08:14:06;;;;;;;18.17;9.53;;;;;;;2.50;94.37;97370.44;1699050;83;21116;-67
2023/12/22 08:16:36;;;;;;;20.35;9.18;;;;;;;2.52;94.57;97368.34;1679500;85;21032;-64
2023/12/22 08:19:07;;;;;;;17.35;8.93;;;;;;;2.54;94.68;97373.52;1719634;82;21068;-65
2023/12/22 08:21:36;;;;;;;15.05;8.38;;;;;;;2.56;94.80;97360.61;1681491;84;21149;-66
2023/12/22 08:24:07;;;;;;;17.82;8.80;;;;;;;2.58;94.76;97357.69;1678209;85;21033;-63
2023/12/22 08:26:36;;;;;;;13.80;8.73;;;;;;;2.59;94.90;97353.94;1737251;82;21030;-65
2023/12/22 08:29:05;;;;;;;18.32;9.65;;;;;;;2.62;95.00;97354.36;1737119;82;21460;-64
2023/12/22 08:31:34;;;;;;;18.82;9.10;;;;;;;2.64;95.00;97346.86;1699414;84;21084;-66
2023/12/22 08:34:03;;;;;;;16.37;9.23;;;;;;;2.66;94.96;97346.63;1679003;85;21064;-64
2023/12/22 08:36:32;;;;;;;16.87;8.65;;;;;;;2.68;95.09;97341.83;1707993;82;21146;-62
2023/12/22 08:39:01;;;;;;;17.52;9.45;;;;;;;2.70;95.15;97345.14;1672637;85;21491;-64
2023/12/22 08:41:35;;;;;;;17.65;9.05;;;;;;;2.69;95.07;97333.50;1653112;87;21045;-64
2023/12/22 08:44:02;;;;;;;15.25;8.35;;;;;;;2.70;95.00;97326.22;1708899;84;21701;-65
2023/12/22 08:46:31;;;;;;;16.57;9.15;;;;;;;2.69;95.11;97324.56;1672424;84;21536;-64
2023/12/22 08:49:01;;;;;;;15.88;8.85;;;;;;;2.71;95.21;97334.10;1641760;86;21084;-63
2023/12/22 08:51:30;;;;;;;18.62;9.08;;;;;;;2.72;95.24;97322.24;1672767;86;21056;-64
2023/12/22 08:53:59;;;;;;;23.32;11.65;;;;;;;2.73;95.29;97315.78;1653181;87;21120;-66
2023/12/22 08:56:28;;;;;;;19.60;9.33;;;;;;;2.75;95.31;97316.91;1708900;84;21091;-65
2023/12/22 08:58:59;;;;;;;21.80;10.00;;;;;;;2.76;95.57;97313.16;1672532;84;21060;-66
2023/12/22 09:01:28;;;;;;;14.98;8.40;;;;;;;2.82;95.75;97318.50;1672990;84;21057;-65
2023/12/22 09:03:56;;;;;;;16.87;9.48;;;;;;;2.84;95.79;97304.23;1665167;84;21029;-65
2023/12/22 09:06:25;;;;;;;19.02;10.50;;;;;;;2.86;95.82;97298.08;1652927;85;21097;-65
2023/12/22 09:08:55;;;;;;;18.07;8.95;;;;;;;2.88;95.89;97305.95;1652807;87;21080;-66
2023/12/22 09:11:23;;;;;;;19.57;9.55;;;;;;;2.95;96.19;97305.89;1652860;86;21472;-68
2023/12/22 09:13:52;;;;;;;18.98;9.45;;;;;;;3.00;96.21;97310.09;1672486;85;21063;-66
2023/12/22 09:16:27;;;;;;;16.95;8.68;;;;;;;3.02;96.11;97298.00;1652813;87;21484;-67
2023/12/22 09:18:56;;;;;;;21.27;9.43;;;;;;;3.03;95.98;97301.00;1672342;84;21025;-65
2023/12/22 09:21:26;;;;;;;17.27;9.05;;;;;;;3.05;95.92;97303.48;1734491;83;21035;-67
2023/12/22 09:23:55;;;;;;;16.85;8.80;;;;;;;3.07;95.97;97301.38;1713719;82;21400;-68
2023/12/22 09:26:24;;;;;;;19.27;9.80;;;;;;;3.09;95.91;97305.51;1713307;82;21058;-66
2023/12/22 09:28:55;;;;;;;16.82;9.53;;;;;;;3.12;95.91;97302.87;1761609;81;21051;-66
2023/12/22 09:31:23;;;;;;;17.55;9.40;;;;;;;3.15;95.90;97301.90;1733978;82;21055;-66
2023/12/22 09:33:52;;;;;;;20.08;10.58;;;;;;;3.17;95.77;97301.67;1734304;82;21485;-66
2023/12/22 09:36:21;;;;;;;17.40;9.93;;;;;;;3.20;95.83;97301.22;1735559;81;21016;-66
2023/12/22 09:38:51;;;;;;;18.35;9.53;;;;;;;3.24;95.79;97303.77;1737080;82;21103;-66
2023/12/22 09:41:19;;;;;;;16.30;9.18;;;;;;;3.24;95.63;97305.13;1737062;82;21135;-66
2023/12/22 09:43:49;;;;;;;19.60;9.58;;;;;;;3.27;95.64;97297.11;1737287;82;21047;-66
2023/12/22 09:46:20;;;;;;;18.27;9.48;;;;;;;3.29;95.51;97293.13;1737191;82;21103;-69
2023/12/22 09:48:49;;;;;;;17.90;10.00;;;;;;;3.30;95.32;97292.07;1737266;82;21059;-68
2023/12/22 09:51:18;;;;;;;18.17;8.83;;;;;;;3.31;95.25;97285.61;1737100;82;21091;-66
2023/12/22 09:53:47;;;;;;;16.15;8.93;;;;;;;3.32;95.03;97283.72;1737211;82;21020;-67
2023/12/22 09:56:16;;;;;;;18.07;9.68;;;;;;;3.31;94.78;97291.02;1737163;82;21052;-66
2023/12/22 09:58:46;;;;;;;16.77;9.30;;;;;;;3.30;94.78;97294.77;1710990;82;21135;-66
2023/12/22 10:01:15;;;;;;;20.05;10.13;;;;;;;3.33;94.82;97290.27;1737264;82;21031;-67
2023/12/22 10:03:46;;;;;;;16.02;8.73;;;;;;;3.35;94.68;97294.92;1737078;82;21541;-67
2023/12/22 10:06:19;;;;;;;16.55;9.18;;;;;;;3.37;94.59;97292.81;1737212;82;21019;-66
2023/12/22 10:08:50;;;;;;;15.78;8.75;;;;;;;3.36;94.47;97294.39;1737290;82;21032;-66
2023/12/22 10:11:20;;;;;;;15.48;9.25;;;;;;;3.35;94.38;97281.92;1731159;81;21067;-66
2023/12/22 10:13:52;;;;;;;17.55;9.10;;;;;;;3.38;94.93;97275.52;1778914;80;21565;-67
2023/12/22 10:16:22;;;;;;;14.43;8.28;;;;;;;3.37;94.46;97284.69;1778981;80;21109;-66
2023/12/22 10:18:51;;;;;;;18.92;9.53;;;;;;;3.31;94.16;97281.55;1778915;80;21058;-67
2023/12/22 10:21:22;;;;;;;19.48;9.50;;;;;;;3.26;94.18;97279.23;1778896;81;21062;-67
2023/12/22 10:23:53;;;;;;;16.23;9.00;;;;;;;3.23;94.33;97285.06;1751946;81;21464;-66
2023/12/22 10:26:23;;;;;;;16.73;9.30;;;;;;;3.22;94.36;97277.47;1751287;81;21067;-67
2023/12/22 10:28:52;;;;;;;18.32;9.60;;;;;;;3.20;94.40;97272.81;1779307;81;21509;-67
2023/12/22 10:31:21;;;;;;;15.55;9.30;;;;;;;3.16;94.39;97274.33;1778904;80;21090;-66
2023/12/22 10:33:50;;;;;;;18.10;9.90;;;;;;;3.14;94.51;97269.67;1779095;80;21094;-67
2023/12/22 10:36:19;;;;;;;19.70;9.90;;;;;;;3.15;94.70;97263.20;1778804;81;21483;-67
2023/12/22 10:38:48;;;;;;;16.48;9.03;;;;;;;3.15;94.75;97265.91;1779033;81;21072;-67
2023/12/22 10:41:17;;;;;;;19.17;9.58;;;;;;;3.16;94.83;97259.45;1779137;80;21011;-67
2023/12/22 10:43:46;;;;;;;16.00;9.20;;;;;;;3.16;94.90;97263.50;1778954;80;21493;-67
2023/12/22 10:46:15;;;;;;;17.82;9.83;;;;;;;3.15;95.02;97255.92;1779180;81;21015;-66
2023/12/22 10:48:46;;;;;;;20.25;11.85;;;;;;;3.15;95.13;97252.39;1779170;80;21159;-68
2023/12/22 10:51:16;;;;;;;17.95;10.38;;;;;;;3.17;95.28;97242.17;1751791;81;21043;-67
2023/12/22 10:53:45;;;;;;;18.23;9.98;;;;;;;3.12;95.19;97241.50;1751331;81;21051;-68
2023/12/22 10:56:14;;;;;;;17.02;10.35;;;;;;;3.13;95.50;97254.50;1779024;80;21082;-68
2023/12/22 10:58:45;;;;;;;16.00;9.00;;;;;;;3.14;95.67;97247.50;1778942;80;21521;-69
2023/12/22 11:01:15;;;;;;;16.52;10.10;;;;;;;3.16;95.78;97243.22;1751784;81;21193;-67
2023/12/22 11:03:45;;;;;;;17.70;9.90;;;;;;;3.16;95.85;97244.58;1779159;80;21027;-68
2023/12/22 11:06:15;;;;;;;19.67;10.08;;;;;;;3.16;95.99;97245.92;1778825;81;21087;-68
2023/12/22 11:08:44;;;;;;;19.17;10.80;;;;;;;3.15;96.02;97245.09;1778951;81;21027;-69
2023/12/22 11:11:34;;;;;;;19.57;10.68;;;;;;;3.14;96.09;97246.68;1762007;81;21061;-67
2023/12/22 11:14:04;;;;;;;22.73;11.22;;;;;;;3.15;96.21;97245.62;1741747;82;21044;-68
2023/12/22 11:16:36;;;;;;;21.82;11.73;;;;;;;3.13;96.24;97235.56;1713044;82;21023;-67
2023/12/22 11:19:05;;;;;;;21.00;11.65;;;;;;;3.12;96.39;97223.09;1706389;84;21437;-67
2023/12/22 11:21:34;;;;;;;19.40;10.88;;;;;;;3.09;96.45;97228.43;1713397;82;21043;-68
2023/12/22 11:24:04;;;;;;;20.15;11.48;;;;;;;3.09;96.65;97224.90;1706344;83;21112;-68
2023/12/22 11:26:34;;;;;;;20.52;10.85;;;;;;;3.09;96.78;97224.38;1741672;82;21024;-68
2023/12/22 11:29:03;;;;;;;17.17;10.65;;;;;;;3.11;97.05;97225.50;1741523;82;21048;-68
2023/12/22 11:31:32;;;;;;;21.42;11.50;;;;;;;3.15;97.23;97230.75;1741868;82;21115;-68
2023/12/22 11:34:01;;;;;;;21.62;11.38;;;;;;;3.16;97.23;97233.75;1741865;81;21557;-68
2023/12/22 11:36:32;;;;;;;25.02;12.75;;;;;;;3.17;97.40;97227.29;1739976;82;21513;-68
2023/12/22 11:39:00;;;;;;;28.98;13.40;;;;;;;3.17;97.43;97225.41;1699256;84;21314;-68
2023/12/22 11:41:32;;;;;;;30.08;13.53;;;;;;;3.15;97.45;97228.88;1679174;85;21071;-66